Time;durP1;ratioP1;P1;durP2;ratioP2;P2;SDS_P1;SDS_P2;PMS_P1;PMS_P2;Temp;Humidity;BMP_temperature;BMP_pressure;BME280_temperature;BME280_humidity;BME280_pressure;Samples;Min_cycle;Max_cycle;Signal;HPM_P1;HPM_P2
2022/01/11 00:00:10;;;;;;;28.70;15.73;;;;;;;;;;5032128;28;20236;-70
2022/01/11 00:02:40;;;;;;;21.73;15.57;;;;;;;;;;5032830;28;20721;-69
2022/01/11 00:05:08;;;;;;;20.00;13.63;;;;;;;;;;5032985;28;20345;-70
2022/01/11 00:07:35;;;;;;;23.67;15.03;;;;;;;;;;5032978;28;20212;-69
2022/01/11 00:10:05;;;;;;;21.30;14.20;;;;;;;;;;5032192;28;20265;-69
2022/01/11 00:12:32;;;;;;;20.80;14.93;;;;;;;;;;5032874;28;20250;-69
2022/01/11 00:14:58;;;;;;;18.53;13.33;;;;;;;;;;5032288;28;20215;-69
2022/01/11 00:17:26;;;;;;;20.33;15.70;;;;;;;;;;5032997;28;20248;-69
2022/01/11 00:19:52;;;;;;;22.60;15.87;;;;;;;;;;5032564;28;20312;-69
2022/01/11 00:22:20;;;;;;;20.97;15.17;;;;;;;;;;5031428;28;20219;-69
2022/01/11 00:24:46;;;;;;;22.60;15.20;;;;;;;;;;5033313;28;20209;-69
2022/01/11 00:27:13;;;;;;;22.33;14.43;;;;;;;;;;5031546;28;20756;-69
2022/01/11 00:29:42;;;;;;;26.40;16.63;;;;;;;;;;5032592;28;20213;-69
2022/01/11 00:32:13;;;;;;;22.07;16.13;;;;;;;;;;5033498;28;20226;-69
2022/01/11 00:34:48;;;;;;;22.53;15.33;;;;;;;;;;5033462;28;20309;-69
2022/01/11 00:37:15;;;;;;;22.40;16.00;;;;;;;;;;5031077;28;20676;-69
2022/01/11 00:39:42;;;;;;;26.57;16.47;;;;;;;;;;5030804;28;20215;-69
2022/01/11 00:42:08;;;;;;;22.00;16.00;;;;;;;;;;5032559;28;20210;-70
2022/01/11 00:44:35;;;;;;;25.83;16.80;;;;;;;;;;5031116;28;20275;-69
2022/01/11 00:47:01;;;;;;;24.40;16.00;;;;;;;;;;5030894;28;20696;-69
2022/01/11 00:49:28;;;;;;;23.63;15.17;;;;;;;;;;5032024;28;20622;-69
2022/01/11 00:51:56;;;;;;;22.63;16.70;;;;;;;;;;5028523;28;20222;-69
2022/01/11 00:54:22;;;;;;;23.63;16.53;;;;;;;;;;5031111;28;20708;-69
2022/01/11 00:56:49;;;;;;;26.50;17.50;;;;;;;;;;5029983;28;20206;-69
2022/01/11 00:59:15;;;;;;;26.07;16.80;;;;;;;;;;5030667;28;20211;-69
2022/01/11 01:01:41;;;;;;;24.03;17.23;;;;;;;;;;5029578;28;20293;-69
2022/01/11 01:04:08;;;;;;;27.47;16.90;;;;;;;;;;5028882;28;20210;-69
2022/01/11 01:06:37;;;;;;;23.00;15.93;;;;;;;;;;5029202;28;20222;-69
2022/01/11 01:09:05;;;;;;;25.27;17.90;;;;;;;;;;5029726;28;20696;-69
2022/01/11 01:11:32;;;;;;;26.10;16.73;;;;;;;;;;5031070;28;20265;-69
2022/01/11 01:13:59;;;;;;;26.33;17.03;;;;;;;;;;5029107;28;20234;-70
2022/01/11 01:16:25;;;;;;;27.10;17.87;;;;;;;;;;5032439;28;20944;-69
2022/01/11 01:18:52;;;;;;;26.30;18.43;;;;;;;;;;5030495;28;20215;-70
2022/01/11 01:21:19;;;;;;;30.83;18.40;;;;;;;;;;5031364;28;20237;-70
2022/01/11 01:23:46;;;;;;;30.60;16.70;;;;;;;;;;5032668;28;20219;-70
2022/01/11 01:26:17;;;;;;;26.53;18.70;;;;;;;;;;5029946;28;20237;-70
2022/01/11 01:28:44;;;;;;;29.50;18.30;;;;;;;;;;5031401;28;20214;-69
2022/01/11 01:31:10;;;;;;;25.27;17.17;;;;;;;;;;5030965;28;20279;-71
2022/01/11 01:33:37;;;;;;;29.83;18.97;;;;;;;;;;5031463;28;20209;-70
2022/01/11 01:36:11;;;;;;;34.27;20.33;;;;;;;;;;5029716;28;20252;-70
2022/01/11 01:38:37;;;;;;;32.07;19.67;;;;;;;;;;5030720;28;20227;-71
2022/01/11 01:41:11;;;;;;;27.90;18.90;;;;;;;;;;5030996;28;20625;-70
2022/01/11 01:43:40;;;;;;;30.17;19.97;;;;;;;;;;5030880;28;20662;-70
2022/01/11 01:46:06;;;;;;;33.90;19.40;;;;;;;;;;5029367;28;20590;-71
2022/01/11 01:48:35;;;;;;;33.00;19.70;;;;;;;;;;5029576;28;20579;-71
2022/01/11 01:51:02;;;;;;;34.40;20.80;;;;;;;;;;5030653;28;20245;-71
2022/01/11 01:53:28;;;;;;;36.30;20.17;;;;;;;;;;5031550;28;20207;-70
2022/01/11 01:55:55;;;;;;;31.40;19.30;;;;;;;;;;5029327;28;20269;-71
2022/01/11 01:58:22;;;;;;;28.83;19.63;;;;;;;;;;5030225;28;20218;-71
2022/01/11 02:00:55;;;;;;;30.80;20.23;;;;;;;;;;5029564;28;20321;-71
2022/01/11 02:03:26;;;;;;;37.53;20.13;;;;;;;;;;5030542;28;20242;-71
2022/01/11 02:05:54;;;;;;;31.03;19.43;;;;;;;;;;5031009;28;20733;-70
2022/01/11 02:08:21;;;;;;;33.97;19.90;;;;;;;;;;5027282;28;20211;-72
2022/01/11 02:10:47;;;;;;;30.13;18.13;;;;;;;;;;5027743;28;20242;-70
2022/01/11 02:13:14;;;;;;;39.53;21.60;;;;;;;;;;5030882;28;20239;-70
2022/01/11 02:15:40;;;;;;;34.23;20.27;;;;;;;;;;5030012;28;20724;-71
2022/01/11 02:18:10;;;;;;;28.73;18.43;;;;;;;;;;5027834;28;20387;-70
2022/01/11 02:20:38;;;;;;;35.07;20.47;;;;;;;;;;5030189;28;20227;-70
2022/01/11 02:23:04;;;;;;;32.47;20.63;;;;;;;;;;5028981;28;20292;-70
2022/01/11 02:25:31;;;;;;;31.57;20.30;;;;;;;;;;5028538;28;20219;-71
2022/01/11 02:27:57;;;;;;;31.73;20.47;;;;;;;;;;5029468;28;20251;-71
2022/01/11 02:30:24;;;;;;;36.63;20.97;;;;;;;;;;5026754;28;20211;-71
2022/01/11 02:32:51;;;;;;;35.83;20.13;;;;;;;;;;5029929;28;20240;-70
2022/01/11 02:35:18;;;;;;;33.90;20.63;;;;;;;;;;5028208;28;20230;-71
2022/01/11 02:37:46;;;;;;;34.13;19.40;;;;;;;;;;5028591;28;20433;-71
2022/01/11 02:40:14;;;;;;;32.73;20.10;;;;;;;;;;5027741;28;20344;-70
2022/01/11 02:42:40;;;;;;;36.70;20.73;;;;;;;;;;5030253;28;20288;-70
2022/01/11 02:45:13;;;;;;;33.03;20.37;;;;;;;;;;5030026;28;20591;-70
2022/01/11 02:47:39;;;;;;;37.00;20.10;;;;;;;;;;5026340;28;20266;-70
2022/01/11 02:50:07;;;;;;;34.20;20.10;;;;;;;;;;5030195;28;20261;-70
2022/01/11 02:52:33;;;;;;;35.37;19.30;;;;;;;;;;5028879;28;20268;-71
2022/01/11 02:55:02;;;;;;;33.83;19.87;;;;;;;;;;5026953;28;20213;-70
2022/01/11 02:57:28;;;;;;;39.73;22.17;;;;;;;;;;5029994;28;20211;-71
2022/01/11 02:59:55;;;;;;;33.87;19.97;;;;;;;;;;5028800;28;20213;-71
2022/01/11 03:02:21;;;;;;;37.27;20.67;;;;;;;;;;5029706;28;20885;-70
2022/01/11 03:04:47;;;;;;;28.07;17.50;;;;;;;;;;5029107;28;20295;-70
2022/01/11 03:07:19;;;;;;;35.37;20.20;;;;;;;;;;5028563;28;20229;-70
2022/01/11 03:09:57;;;;;;;32.63;19.40;;;;;;;;;;5028642;28;20279;-71
2022/01/11 03:12:25;;;;;;;33.50;19.67;;;;;;;;;;5028205;28;20242;-70
2022/01/11 03:14:52;;;;;;;38.27;21.70;;;;;;;;;;5030985;28;20273;-71
2022/01/11 03:17:18;;;;;;;35.37;20.70;;;;;;;;;;5028480;28;20223;-70
2022/01/11 03:19:45;;;;;;;34.83;19.20;;;;;;;;;;5027632;28;20704;-70
2022/01/11 03:22:11;;;;;;;33.03;20.00;;;;;;;;;;5029006;28;20261;-71
2022/01/11 03:24:38;;;;;;;37.50;20.07;;;;;;;;;;5028670;28;20273;-71
2022/01/11 03:27:07;;;;;;;31.77;19.47;;;;;;;;;;5027691;28;20225;-71
2022/01/11 03:29:34;;;;;;;32.73;20.23;;;;;;;;;;5028368;28;20243;-71
2022/01/11 03:32:01;;;;;;;33.47;19.27;;;;;;;;;;5027375;28;20947;-70
2022/01/11 03:34:27;;;;;;;38.83;21.97;;;;;;;;;;5028767;28;20230;-70
2022/01/11 03:36:54;;;;;;;33.13;20.27;;;;;;;;;;5029449;28;20225;-69
2022/01/11 03:39:20;;;;;;;35.87;20.17;;;;;;;;;;5029628;28;20272;-70
2022/01/11 03:41:48;;;;;;;33.93;19.73;;;;;;;;;;5028355;28;20728;-72
2022/01/11 03:44:15;;;;;;;38.63;21.70;;;;;;;;;;5029491;28;21006;-70
2022/01/11 03:46:42;;;;;;;35.67;21.33;;;;;;;;;;5026874;28;20312;-70
2022/01/11 03:49:09;;;;;;;36.30;19.57;;;;;;;;;;5025328;28;20215;-70
2022/01/11 03:51:38;;;;;;;37.47;21.23;;;;;;;;;;5028361;28;20317;-70
2022/01/11 03:54:10;;;;;;;35.23;20.40;;;;;;;;;;5026839;28;20220;-70
2022/01/11 03:56:37;;;;;;;39.93;22.10;;;;;;;;;;5028768;28;20221;-70
2022/01/11 03:59:06;;;;;;;37.67;20.63;;;;;;;;;;5027140;28;20269;-70
2022/01/11 04:01:32;;;;;;;37.73;21.77;;;;;;;;;;5028316;28;20237;-70
2022/01/11 04:04:00;;;;;;;35.83;20.40;;;;;;;;;;5028923;28;20209;-70
2022/01/11 04:06:27;;;;;;;36.03;21.50;;;;;;;;;;5028644;28;20267;-70
2022/01/11 04:08:54;;;;;;;35.23;20.63;;;;;;;;;;5027831;28;20218;-70
2022/01/11 04:11:20;;;;;;;34.23;20.43;;;;;;;;;;5026656;28;20219;-70
2022/01/11 04:13:47;;;;;;;34.87;19.73;;;;;;;;;;5029160;28;20289;-71
2022/01/11 04:16:14;;;;;;;34.37;20.90;;;;;;;;;;5028006;28;20276;-71
2022/01/11 04:18:40;;;;;;;32.33;19.40;;;;;;;;;;5028907;28;20760;-71
2022/01/11 04:21:08;;;;;;;33.50;19.37;;;;;;;;;;5027414;28;20235;-71
2022/01/11 04:23:35;;;;;;;34.07;21.03;;;;;;;;;;5028938;28;20269;-70
2022/01/11 04:26:03;;;;;;;30.90;19.00;;;;;;;;;;5027875;28;20271;-71
2022/01/11 04:28:29;;;;;;;36.27;20.07;;;;;;;;;;5028238;28;20234;-68
2022/01/11 04:30:58;;;;;;;34.03;19.77;;;;;;;;;;5030739;28;20214;-70
2022/01/11 04:33:24;;;;;;;34.40;20.57;;;;;;;;;;5031880;28;20265;-70
2022/01/11 04:35:51;;;;;;;35.80;19.83;;;;;;;;;;5031196;28;20634;-70
2022/01/11 04:38:19;;;;;;;29.80;18.80;;;;;;;;;;5031294;28;20218;-70
2022/01/11 04:40:46;;;;;;;30.23;18.23;;;;;;;;;;5031202;28;20224;-70
2022/01/11 04:43:13;;;;;;;32.80;19.23;;;;;;;;;;5031258;28;20252;-70
2022/01/11 04:45:39;;;;;;;36.43;20.93;;;;;;;;;;5032927;28;20214;-70
2022/01/11 04:48:07;;;;;;;30.23;18.90;;;;;;;;;;5030423;28;20233;-70
2022/01/11 04:50:34;;;;;;;31.60;19.63;;;;;;;;;;5031428;28;20268;-70
2022/01/11 04:53:01;;;;;;;31.17;18.63;;;;;;;;;;5031689;28;20248;-70
2022/01/11 04:55:29;;;;;;;32.17;19.13;;;;;;;;;;5031370;28;20217;-70
2022/01/11 04:57:56;;;;;;;24.10;14.70;;;;;;;;;;5030049;28;20614;-71
2022/01/11 05:00:24;;;;;;;26.23;17.07;;;;;;;;;;5032076;28;20273;-70
2022/01/11 05:02:50;;;;;;;22.73;14.30;;;;;;;;;;5030802;28;20297;-71
2022/01/11 05:05:16;;;;;;;27.67;17.53;;;;;;;;;;5031070;28;20241;-70
2022/01/11 05:07:43;;;;;;;30.20;18.37;;;;;;;;;;5031786;28;20231;-70
2022/01/11 05:10:10;;;;;;;29.33;17.60;;;;;;;;;;5029728;28;20283;-70
2022/01/11 05:12:39;;;;;;;29.80;17.63;;;;;;;;;;5031352;28;20237;-70
2022/01/11 05:15:06;;;;;;;26.00;16.63;;;;;;;;;;5031085;28;20654;-71
2022/01/11 05:17:33;;;;;;;26.83;18.30;;;;;;;;;;5031731;28;20236;-70
2022/01/11 05:19:59;;;;;;;25.10;16.27;;;;;;;;;;5028536;28;20264;-70
2022/01/11 05:22:26;;;;;;;22.10;13.40;;;;;;;;;;5033373;28;20211;-70
2022/01/11 05:24:52;;;;;;;26.73;17.53;;;;;;;;;;5030885;28;20215;-70
2022/01/11 05:27:18;;;;;;;21.70;14.33;;;;;;;;;;5028799;28;20495;-70
2022/01/11 05:29:46;;;;;;;25.63;16.27;;;;;;;;;;5030456;28;20916;-70
2022/01/11 05:32:12;;;;;;;34.60;25.20;;;;;;;;;;5030711;28;20457;-77
2022/01/11 05:34:39;;;;;;;28.37;18.20;;;;;;;;;;5031363;28;20259;-77
2022/01/11 05:37:05;;;;;;;24.57;14.80;;;;;;;;;;5030727;28;20207;-77
2022/01/11 05:39:32;;;;;;;28.83;18.47;;;;;;;;;;5031265;28;20207;-77
2022/01/11 05:42:00;;;;;;;33.20;19.67;;;;;;;;;;5029619;28;20214;-78
2022/01/11 05:44:27;;;;;;;29.97;18.77;;;;;;;;;;5031651;28;20219;-78
2022/01/11 05:46:54;;;;;;;31.53;19.90;;;;;;;;;;5030660;28;20602;-78
2022/01/11 05:49:21;;;;;;;28.90;15.70;;;;;;;;;;5029540;28;20233;-77
2022/01/11 05:51:47;;;;;;;34.83;19.27;;;;;;;;;;5030224;28;20305;-76
2022/01/11 05:54:14;;;;;;;32.07;19.07;;;;;;;;;;5030382;28;20216;-77
2022/01/11 05:56:40;;;;;;;27.63;17.20;;;;;;;;;;5030801;28;20220;-77
2022/01/11 05:59:07;;;;;;;32.70;19.17;;;;;;;;;;5029762;28;20242;-76
2022/01/11 06:01:33;;;;;;;31.07;18.40;;;;;;;;;;5030467;28;20749;-77
2022/01/11 06:04:01;;;;;;;33.43;20.17;;;;;;;;;;5030289;28;20265;-77
2022/01/11 06:06:28;;;;;;;35.93;20.63;;;;;;;;;;5030385;28;20275;-77
2022/01/11 06:08:54;;;;;;;34.30;20.43;;;;;;;;;;5030724;28;20604;-78
2022/01/11 06:11:21;;;;;;;33.80;19.10;;;;;;;;;;5029634;28;20642;-77
2022/01/11 06:13:50;;;;;;;31.30;18.50;;;;;;;;;;5027340;28;20235;-77
2022/01/11 06:16:17;;;;;;;34.50;18.60;;;;;;;;;;5029736;28;20216;-77
2022/01/11 06:18:45;;;;;;;40.17;21.53;;;;;;;;;;5028672;28;20255;-77
2022/01/11 06:21:13;;;;;;;33.50;19.97;;;;;;;;;;5029301;28;21094;-77
2022/01/11 06:23:40;;;;;;;34.83;19.67;;;;;;;;;;5029747;28;20217;-77
2022/01/11 06:26:06;;;;;;;32.43;18.10;;;;;;;;;;5028147;28;20213;-77
2022/01/11 06:28:33;;;;;;;31.93;18.40;;;;;;;;;;5029474;28;21072;-77
2022/01/11 06:31:00;;;;;;;35.00;19.37;;;;;;;;;;5030178;28;21064;-77
2022/01/11 06:33:26;;;;;;;39.27;20.97;;;;;;;;;;5028709;28;20226;-77
2022/01/11 06:35:53;;;;;;;40.90;22.27;;;;;;;;;;5029610;28;20631;-77
2022/01/11 06:38:20;;;;;;;43.20;23.80;;;;;;;;;;5028070;28;20347;-77
2022/01/11 06:40:47;;;;;;;40.97;22.40;;;;;;;;;;5030498;28;20257;-77
2022/01/11 06:43:13;;;;;;;42.90;23.53;;;;;;;;;;5027766;28;20590;-77
2022/01/11 06:45:40;;;;;;;42.07;23.50;;;;;;;;;;5029521;28;20206;-78
2022/01/11 06:48:08;;;;;;;39.03;23.03;;;;;;;;;;5029000;28;20325;-77
2022/01/11 06:50:35;;;;;;;40.17;22.27;;;;;;;;;;5028907;28;20710;-77
2022/01/11 06:53:01;;;;;;;36.13;21.23;;;;;;;;;;5029134;28;20274;-77
2022/01/11 06:55:29;;;;;;;37.13;21.40;;;;;;;;;;5030376;28;20214;-77
2022/01/11 06:57:56;;;;;;;42.50;24.07;;;;;;;;;;5029830;28;20336;-77
2022/01/11 07:00:22;;;;;;;44.30;23.70;;;;;;;;;;5029611;28;20207;-77
2022/01/11 07:02:50;;;;;;;39.40;23.20;;;;;;;;;;5025987;28;20234;-77
2022/01/11 07:05:17;;;;;;;44.30;23.07;;;;;;;;;;5030529;28;20775;-77
2022/01/11 07:07:43;;;;;;;33.27;18.40;;;;;;;;;;5028137;28;20238;-77
2022/01/11 07:10:10;;;;;;;38.97;22.20;;;;;;;;;;5025222;28;20243;-77
2022/01/11 07:12:38;;;;;;;25.03;14.30;;;;;;;;;;5028714;28;20650;-77
2022/01/11 07:15:05;;;;;;;38.87;22.23;;;;;;;;;;5027219;28;20261;-77
2022/01/11 07:17:32;;;;;;;38.27;21.13;;;;;;;;;;5026688;28;20334;-77
2022/01/11 07:19:58;;;;;;;37.23;21.53;;;;;;;;;;5027364;28;20226;-77
2022/01/11 07:22:25;;;;;;;36.70;19.90;;;;;;;;;;5026038;28;20228;-77
2022/01/11 07:24:52;;;;;;;29.90;17.83;;;;;;;;;;5027159;28;20354;-78
2022/01/11 07:27:18;;;;;;;39.83;23.20;;;;;;;;;;5025158;28;20292;-78
2022/01/11 07:29:46;;;;;;;37.53;21.77;;;;;;;;;;5023758;28;20223;-77
2022/01/11 07:32:13;;;;;;;35.03;21.40;;;;;;;;;;5027830;28;20299;-77
2022/01/11 07:34:40;;;;;;;38.07;20.27;;;;;;;;;;5026323;28;20626;-77
2022/01/11 07:37:06;;;;;;;36.43;21.87;;;;;;;;;;5024903;28;20211;-77
2022/01/11 07:39:33;;;;;;;32.47;20.47;;;;;;;;;;5023486;28;20206;-77
2022/01/11 07:42:00;;;;;;;34.70;19.07;;;;;;;;;;5025368;28;20207;-77
2022/01/11 07:44:26;;;;;;;32.90;19.40;;;;;;;;;;5024424;28;20270;-77
2022/01/11 07:46:54;;;;;;;35.27;22.57;;;;;;;;;;5028131;28;20287;-77
2022/01/11 07:49:21;;;;;;;37.63;21.33;;;;;;;;;;5023172;28;20351;-77
2022/01/11 07:51:47;;;;;;;35.70;21.80;;;;;;;;;;5025393;28;20257;-77
2022/01/11 07:54:14;;;;;;;36.50;21.37;;;;;;;;;;5024620;28;20794;-77
2022/01/11 07:56:40;;;;;;;33.30;20.17;;;;;;;;;;5025380;28;20283;-77
2022/01/11 07:59:07;;;;;;;34.47;20.00;;;;;;;;;;5026237;28;20217;-77
2022/01/11 08:01:33;;;;;;;36.63;21.93;;;;;;;;;;5026887;28;20332;-77
2022/01/11 08:04:01;;;;;;;34.97;22.17;;;;;;;;;;5026928;28;20207;-77
2022/01/11 08:06:28;;;;;;;35.77;21.20;;;;;;;;;;5027716;28;21158;-77
2022/01/11 08:08:54;;;;;;;32.90;19.47;;;;;;;;;;5029476;28;20288;-77
2022/01/11 08:11:20;;;;;;;34.97;20.93;;;;;;;;;;5029808;28;20215;-77
2022/01/11 08:13:47;;;;;;;34.97;20.97;;;;;;;;;;5030402;28;20728;-77
2022/01/11 08:16:13;;;;;;;36.53;21.00;;;;;;;;;;5028676;28;20206;-77
2022/01/11 08:18:40;;;;;;;34.40;20.70;;;;;;;;;;5030072;28;20666;-77
2022/01/11 08:21:08;;;;;;;30.87;18.80;;;;;;;;;;5029723;28;20230;-77
2022/01/11 08:23:34;;;;;;;35.30;20.37;;;;;;;;;;5029660;28;20245;-77
2022/01/11 08:26:01;;;;;;;34.37;20.30;;;;;;;;;;5029111;28;20505;-76
2022/01/11 08:28:27;;;;;;;32.03;19.80;;;;;;;;;;5030791;28;20241;-77
2022/01/11 08:30:57;;;;;;;33.23;19.13;;;;;;;;;;5027896;28;20598;-77
2022/01/11 08:33:23;;;;;;;29.93;19.00;;;;;;;;;;5030178;28;20223;-77
2022/01/11 08:35:50;;;;;;;33.40;20.40;;;;;;;;;;5029583;28;20231;-77
2022/01/11 08:38:18;;;;;;;32.50;18.83;;;;;;;;;;5027642;28;20203;-77
2022/01/11 08:40:44;;;;;;;30.20;18.50;;;;;;;;;;5030983;28;20285;-77
2022/01/11 08:43:10;;;;;;;29.33;17.97;;;;;;;;;;5027931;28;20561;-77
2022/01/11 08:45:37;;;;;;;27.83;18.80;;;;;;;;;;5029532;28;20207;-77
2022/01/11 08:48:05;;;;;;;33.07;20.53;;;;;;;;;;5028269;28;20320;-77
2022/01/11 08:50:32;;;;;;;29.27;18.50;;;;;;;;;;5029573;28;20226;-77
2022/01/11 08:52:58;;;;;;;26.07;17.37;;;;;;;;;;5027914;28;20981;-77
2022/01/11 08:55:26;;;;;;;28.43;18.33;;;;;;;;;;5029599;28;20223;-77
2022/01/11 08:57:52;;;;;;;29.37;19.73;;;;;;;;;;5032160;28;20354;-77
2022/01/11 09:00:19;;;;;;;30.63;17.30;;;;;;;;;;5027143;28;20263;-77
2022/01/11 09:02:47;;;;;;;27.13;17.70;;;;;;;;;;5027533;28;20590;-77
2022/01/11 09:05:15;;;;;;;31.33;19.13;;;;;;;;;;5020084;28;21350;-77
2022/01/11 09:07:41;;;;;;;31.13;19.00;;;;;;;;;;5027674;28;20208;-77
2022/01/11 09:10:09;;;;;;;26.10;16.83;;;;;;;;;;5026733;28;20747;-77
2022/01/11 09:12:37;;;;;;;30.13;18.20;;;;;;;;;;5025512;28;20243;-77
2022/01/11 09:15:04;;;;;;;28.07;19.07;;;;;;;;;;5027520;28;20220;-77
2022/01/11 09:17:31;;;;;;;33.70;18.80;;;;;;;;;;5022114;28;20230;-77
2022/01/11 09:19:58;;;;;;;26.77;17.47;;;;;;;;;;5030644;28;20226;-77
2022/01/11 09:22:25;;;;;;;28.07;17.93;;;;;;;;;;5028400;28;20214;-77
2022/01/11 09:24:51;;;;;;;27.33;17.07;;;;;;;;;;5027003;28;20223;-77
2022/01/11 09:27:18;;;;;;;30.77;17.37;;;;;;;;;;5026166;28;20714;-77
2022/01/11 09:29:45;;;;;;;25.37;15.17;;;;;;;;;;5028002;28;20276;-77
2022/01/11 09:32:13;;;;;;;25.47;17.10;;;;;;;;;;5026703;28;20219;-77
2022/01/11 09:34:40;;;;;;;23.53;15.23;;;;;;;;;;5027784;28;20210;-77
2022/01/11 09:37:07;;;;;;;25.80;15.83;;;;;;;;;;5027355;28;20221;-76
2022/01/11 09:39:36;;;;;;;24.40;16.27;;;;;;;;;;5028251;28;20220;-76
2022/01/11 09:42:05;;;;;;;27.27;17.33;;;;;;;;;;5028586;28;20281;-76
2022/01/11 09:44:32;;;;;;;26.33;17.23;;;;;;;;;;5027556;28;20215;-76
2022/01/11 09:47:00;;;;;;;22.90;14.63;;;;;;;;;;5026578;28;20781;-76
2022/01/11 09:49:26;;;;;;;23.27;15.90;;;;;;;;;;5027689;28;20563;-76
2022/01/11 09:51:53;;;;;;;23.93;15.00;;;;;;;;;;5026474;28;20218;-76
2022/01/11 09:54:20;;;;;;;23.37;14.63;;;;;;;;;;5027501;28;20233;-76
2022/01/11 09:56:47;;;;;;;22.73;14.63;;;;;;;;;;5028381;28;20757;-75
2022/01/11 09:59:16;;;;;;;22.87;14.77;;;;;;;;;;5027807;28;20713;-76
2022/01/11 10:01:42;;;;;;;22.40;13.63;;;;;;;;;;5026263;28;20260;-76
2022/01/11 10:04:11;;;;;;;21.63;13.07;;;;;;;;;;5027212;28;20211;-76
2022/01/11 10:06:42;;;;;;;22.10;14.07;;;;;;;;;;5026557;28;20232;-76
2022/01/11 10:09:16;;;;;;;19.40;13.23;;;;;;;;;;5027533;28;20230;-76
2022/01/11 10:11:45;;;;;;;16.93;12.37;;;;;;;;;;5028816;28;20217;-76
2022/01/11 10:14:24;;;;;;;19.13;14.03;;;;;;;;;;5026169;28;20308;-76
2022/01/11 10:17:05;;;;;;;18.17;11.40;;;;;;;;;;5026022;28;20261;-76
2022/01/11 10:19:33;;;;;;;20.67;14.23;;;;;;;;;;5027752;28;20214;-76
2022/01/11 10:22:03;;;;;;;19.70;12.47;;;;;;;;;;5027920;28;20213;-76
2022/01/11 10:24:33;;;;;;;21.10;13.93;;;;;;;;;;5027964;28;20211;-77
2022/01/11 10:27:01;;;;;;;19.77;12.90;;;;;;;;;;5026278;28;20206;-76
2022/01/11 10:29:35;;;;;;;20.63;13.63;;;;;;;;;;5027378;28;20230;-76
2022/01/11 10:32:10;;;;;;;17.67;13.10;;;;;;;;;;5028207;28;20234;-76
2022/01/11 10:34:39;;;;;;;18.37;12.53;;;;;;;;;;5027834;28;21126;-76
2022/01/11 10:37:06;;;;;;;19.80;12.87;;;;;;;;;;5026987;28;20628;-76
2022/01/11 10:39:35;;;;;;;17.87;12.67;;;;;;;;;;5027685;28;20649;-77
2022/01/11 10:42:02;;;;;;;17.73;11.83;;;;;;;;;;5027860;28;20266;-76
2022/01/11 10:44:52;;;;;;;18.97;12.00;;;;;;;;;;5026538;28;20219;-76
2022/01/11 10:47:22;;;;;;;14.43;10.30;;;;;;;;;;5021221;28;20229;-76
2022/01/11 10:49:52;;;;;;;17.37;11.80;;;;;;;;;;5028527;28;20238;-76
2022/01/11 10:52:20;;;;;;;11.83;8.53;;;;;;;;;;5027347;28;20724;-76
2022/01/11 10:54:47;;;;;;;18.43;12.50;;;;;;;;;;5028929;28;20214;-77
2022/01/11 10:57:17;;;;;;;13.17;10.10;;;;;;;;;;5026108;28;20233;-77
2022/01/11 10:59:43;;;;;;;15.83;11.00;;;;;;;;;;5028670;28;20219;-77
2022/01/11 11:02:13;;;;;;;16.33;10.30;;;;;;;;;;5027027;28;20564;-77
2022/01/11 11:04:40;;;;;;;15.07;10.93;;;;;;;;;;5028245;28;20853;-77
2022/01/11 11:07:12;;;;;;;15.47;11.43;;;;;;;;;;5025874;28;20298;-77
2022/01/11 11:09:47;;;;;;;20.30;12.27;;;;;;;;;;5026747;28;20947;-77
2022/01/11 11:12:14;;;;;;;16.93;11.00;;;;;;;;;;5026173;28;20253;-77
2022/01/11 11:14:52;;;;;;;17.40;12.73;;;;;;;;;;5027092;28;20268;-76
2022/01/11 11:17:29;;;;;;;18.17;11.80;;;;;;;;;;5026765;28;20848;-76
2022/01/11 11:19:59;;;;;;;16.07;9.93;;;;;;;;;;5025318;28;20257;-76
2022/01/11 11:22:28;;;;;;;16.63;11.47;;;;;;;;;;5023958;28;20215;-76
2022/01/11 11:24:54;;;;;;;17.23;11.87;;;;;;;;;;5024630;28;20342;-76
2022/01/11 11:27:22;;;;;;;17.23;11.57;;;;;;;;;;5024440;28;20784;-76
2022/01/11 11:29:49;;;;;;;15.57;11.67;;;;;;;;;;5025787;28;20242;-76
2022/01/11 11:32:18;;;;;;;14.80;10.70;;;;;;;;;;5024620;28;20936;-76
2022/01/11 11:34:48;;;;;;;16.77;11.13;;;;;;;;;;5025135;28;21186;-76
2022/01/11 11:37:19;;;;;;;14.27;11.00;;;;;;;;;;5025051;28;20608;-76
2022/01/11 11:39:48;;;;;;;15.23;11.17;;;;;;;;;;5026878;28;20263;-76
2022/01/11 11:42:19;;;;;;;16.27;10.60;;;;;;;;;;5029404;28;20207;-75
2022/01/11 11:44:48;;;;;;;13.67;10.17;;;;;;;;;;5030872;28;20746;-76
2022/01/11 11:47:14;;;;;;;12.53;9.83;;;;;;;;;;5029528;28;20231;-75
2022/01/11 11:49:44;;;;;;;14.33;11.00;;;;;;;;;;5031463;28;20307;-75
2022/01/11 11:52:22;;;;;;;14.30;9.43;;;;;;;;;;5029273;28;20563;-75
2022/01/11 11:54:53;;;;;;;14.83;10.80;;;;;;;;;;5032348;28;20215;-75
2022/01/11 11:57:22;;;;;;;13.67;10.13;;;;;;;;;;5029317;28;20211;-75
2022/01/11 11:59:54;;;;;;;12.77;9.17;;;;;;;;;;5029663;28;20285;-75
2022/01/11 12:02:35;;;;;;;14.37;8.13;;;;;;;;;;5029355;28;20265;-75
2022/01/11 12:05:04;;;;;;;13.47;9.60;;;;;;;;;;5031412;28;20222;-75
2022/01/11 12:07:36;;;;;;;12.23;9.50;;;;;;;;;;5030181;28;20209;-75
2022/01/11 12:10:08;;;;;;;15.07;10.20;;;;;;;;;;5030017;28;20234;-75
2022/01/11 12:12:42;;;;;;;14.77;10.60;;;;;;;;;;5030406;28;21027;-75
2022/01/11 12:15:35;;;;;;;15.20;10.70;;;;;;;;;;5028952;28;20283;-75
2022/01/11 12:18:16;;;;;;;14.70;9.60;;;;;;;;;;5028716;28;20222;-75
2022/01/11 12:20:45;;;;;;;13.60;9.47;;;;;;;;;;5030194;28;20219;-74
2022/01/11 12:23:20;;;;;;;12.40;9.30;;;;;;;;;;5030394;28;20207;-75
2022/01/11 12:25:51;;;;;;;15.37;11.80;;;;;;;;;;5029300;28;20214;-75
2022/01/11 12:28:20;;;;;;;13.53;10.93;;;;;;;;;;5026916;28;20807;-75
2022/01/11 12:30:46;;;;;;;18.70;12.13;;;;;;;;;;5031400;28;20278;-75
2022/01/11 12:33:17;;;;;;;15.27;11.03;;;;;;;;;;5032584;28;20284;-75
2022/01/11 12:35:55;;;;;;;15.17;11.80;;;;;;;;;;5028969;28;20749;-75
2022/01/11 12:38:24;;;;;;;34.40;12.93;;;;;;;;;;5031928;28;20612;-75
2022/01/11 12:40:52;;;;;;;17.27;11.03;;;;;;;;;;5030057;28;20202;-75
2022/01/11 12:43:39;;;;;;;15.37;10.80;;;;;;;;;;5027679;28;20732;-75
2022/01/11 12:46:11;;;;;;;13.97;10.33;;;;;;;;;;5029880;28;20226;-75
2022/01/11 12:49:08;;;;;;;14.90;10.27;;;;;;;;;;5029716;28;20628;-75
2022/01/11 12:51:47;;;;;;;14.77;10.33;;;;;;;;;;5029177;28;20227;-75
2022/01/11 12:54:21;;;;;;;14.00;10.83;;;;;;;;;;5030360;28;20211;-75
2022/01/11 12:56:51;;;;;;;13.93;10.07;;;;;;;;;;5029227;28;20219;-75
2022/01/11 12:59:19;;;;;;;12.57;9.27;;;;;;;;;;5029123;28;21146;-75
2022/01/11 13:01:46;;;;;;;12.93;8.93;;;;;;;;;;5028783;28;20309;-75
2022/01/11 13:04:13;;;;;;;13.93;10.40;;;;;;;;;;5029425;28;20268;-75
2022/01/11 13:06:40;;;;;;;12.73;10.00;;;;;;;;;;5029680;28;20226;-75
2022/01/11 13:09:09;;;;;;;14.77;10.37;;;;;;;;;;5027901;28;20217;-75
2022/01/11 13:11:36;;;;;;;15.63;10.80;;;;;;;;;;5030018;28;20265;-75
2022/01/11 13:14:18;;;;;;;11.97;9.43;;;;;;;;;;5030362;28;20604;-75
2022/01/11 13:16:46;;;;;;;13.50;9.73;;;;;;;;;;5029132;28;20246;-75
2022/01/11 13:19:14;;;;;;;13.83;9.33;;;;;;;;;;5027966;28;20215;-75
2022/01/11 13:21:42;;;;;;;13.03;9.07;;;;;;;;;;5028941;28;20303;-75
2022/01/11 13:24:23;;;;;;;13.40;9.53;;;;;;;;;;5027576;28;20215;-76
2022/01/11 13:26:50;;;;;;;13.77;9.43;;;;;;;;;;5028072;28;20304;-75
2022/01/11 13:29:20;;;;;;;13.33;9.37;;;;;;;;;;5029102;28;20211;-75
2022/01/11 13:31:51;;;;;;;13.40;9.33;;;;;;;;;;5029175;28;20239;-75
2022/01/11 13:34:21;;;;;;;11.77;8.83;;;;;;;;;;5033511;28;20226;-75
2022/01/11 13:36:51;;;;;;;12.77;9.47;;;;;;;;;;5031907;28;20242;-75
2022/01/11 13:39:21;;;;;;;14.27;8.10;;;;;;;;;;5026283;28;20248;-75
2022/01/11 13:41:50;;;;;;;11.73;9.30;;;;;;;;;;5028151;28;20234;-75
2022/01/11 13:44:19;;;;;;;13.87;10.20;;;;;;;;;;5026121;28;20293;-75
2022/01/11 13:46:47;;;;;;;13.00;9.47;;;;;;;;;;5033405;28;20300;-75
2022/01/11 13:49:15;;;;;;;13.57;8.73;;;;;;;;;;5026547;28;20257;-75
2022/01/11 13:51:44;;;;;;;14.83;9.47;;;;;;;;;;5027926;28;20943;-75
2022/01/11 13:54:11;;;;;;;15.37;10.53;;;;;;;;;;5027420;28;20623;-75
2022/01/11 13:56:41;;;;;;;11.63;9.00;;;;;;;;;;5027659;28;20274;-75
2022/01/11 13:59:13;;;;;;;12.30;9.13;;;;;;;;;;5028883;28;20238;-76
2022/01/11 14:01:41;;;;;;;11.40;7.67;;;;;;;;;;5028087;28;20225;-75
2022/01/11 14:04:10;;;;;;;15.07;9.67;;;;;;;;;;5028864;28;20238;-75
2022/01/11 14:06:42;;;;;;;13.70;9.33;;;;;;;;;;5027247;28;20698;-75
2022/01/11 14:09:16;;;;;;;11.90;8.53;;;;;;;;;;5026543;28;20230;-75
2022/01/11 14:11:51;;;;;;;12.63;8.63;;;;;;;;;;5029614;28;20316;-75
2022/01/11 14:14:22;;;;;;;11.93;8.20;;;;;;;;;;5028332;28;20215;-75
2022/01/11 14:16:51;;;;;;;9.30;7.20;;;;;;;;;;5026879;28;20215;-77
2022/01/11 14:19:19;;;;;;;15.23;9.37;;;;;;;;;;5025318;28;20222;-75
2022/01/11 14:21:50;;;;;;;12.60;8.93;;;;;;;;;;5029133;28;20223;-75
2022/01/11 14:24:16;;;;;;;10.67;8.83;;;;;;;;;;5028211;28;20993;-75